createdAt,value
2023-04-03T00:00:37.372Z,1.00
2023-04-03T00:03:04.311Z,1.00
2023-04-03T00:05:31.114Z,1.00
2023-04-03T00:07:57.895Z,1.00
2023-04-03T00:10:24.761Z,1.00
2023-04-03T00:12:51.496Z,1.00
2023-04-03T00:15:18.240Z,1.00
2023-04-03T00:17:45.105Z,1.00
2023-04-03T00:20:12.066Z,1.00
2023-04-03T00:22:38.833Z,1.00
2023-04-03T00:25:06.200Z,1.00
2023-04-03T00:27:32.980Z,1.00
2023-04-03T00:29:59.698Z,1.00
2023-04-03T00:32:26.456Z,1.00
2023-04-03T00:34:53.375Z,1.00
2023-04-03T00:37:20.424Z,1.00
2023-04-03T00:39:47.225Z,1.00
2023-04-03T00:42:13.976Z,1.00
2023-04-03T00:44:40.913Z,1.00
2023-04-03T00:47:09.950Z,1.00
2023-04-03T00:49:37.712Z,1.00
2023-04-03T00:52:07.612Z,1.00
2023-04-03T00:54:37.287Z,1.00
2023-04-03T00:57:04.535Z,1.00
2023-04-03T00:59:34.594Z,1.00
2023-04-03T01:02:01.753Z,1.00
2023-04-03T01:04:36.769Z,1.00
2023-04-03T01:07:25.032Z,1.00
2023-04-03T01:09:54.778Z,1.00
2023-04-03T01:12:27.697Z,1.00
2023-04-03T01:14:57.211Z,1.00
2023-04-03T01:17:34.512Z,1.00
2023-04-03T01:20:32.148Z,1.00
2023-04-03T01:23:11.712Z,1.00
2023-04-03T01:25:51.519Z,1.00
2023-04-03T01:28:21.442Z,1.00
2023-04-03T01:30:53.975Z,1.00
2023-04-03T01:33:20.819Z,1.00
2023-04-03T01:35:47.631Z,1.00
2023-04-03T01:38:14.398Z,1.00
2023-04-03T01:40:41.144Z,1.00
2023-04-03T01:43:07.906Z,1.00
2023-04-03T01:45:34.726Z,1.00
2023-04-03T01:48:01.651Z,1.00
2023-04-03T01:50:28.452Z,1.00
2023-04-03T01:52:55.281Z,1.00
2023-04-03T01:55:22.049Z,1.00
2023-04-03T01:57:48.944Z,1.00
2023-04-03T02:00:16.507Z,1.00
2023-04-03T02:02:43.362Z,1.00
2023-04-03T02:05:10.233Z,1.00
2023-04-03T02:07:37.414Z,1.00
2023-04-03T02:10:04.380Z,1.00
2023-04-03T02:12:31.180Z,1.00
2023-04-03T02:14:57.948Z,1.00
2023-04-03T02:17:24.851Z,1.00
2023-04-03T02:19:51.708Z,1.00
2023-04-03T02:22:18.743Z,1.00
2023-04-03T02:24:45.676Z,1.00
2023-04-03T02:27:13.794Z,1.00
2023-04-03T02:29:40.552Z,1.00
2023-04-03T02:32:07.369Z,1.00
2023-04-03T02:34:34.094Z,1.00
2023-04-03T02:37:00.884Z,1.00
2023-04-03T02:39:27.998Z,1.00
2023-04-03T02:41:54.761Z,1.00
2023-04-03T02:44:21.541Z,1.00
2023-04-03T02:46:48.267Z,1.00
2023-04-03T02:49:15.024Z,1.00
2023-04-03T02:51:42.062Z,1.00
2023-04-03T02:54:09.293Z,1.00
2023-04-03T02:56:36.042Z,1.00
2023-04-03T02:59:03.395Z,1.00
2023-04-03T03:01:32.571Z,1.00
2023-04-03T03:04:02.434Z,1.00
2023-04-03T03:06:29.261Z,1.00
2023-04-03T03:08:56.159Z,1.00
2023-04-03T03:11:23.121Z,1.00
2023-04-03T03:13:50.036Z,1.00
2023-04-03T03:16:17.022Z,1.00
2023-04-03T03:18:43.858Z,1.00
2023-04-03T03:21:11.539Z,1.00
2023-04-03T03:23:38.467Z,1.00
2023-04-03T03:26:07.670Z,1.00
2023-04-03T03:28:35.292Z,1.00
2023-04-03T03:31:03.266Z,1.00
2023-04-03T03:33:30.268Z,1.00
2023-04-03T03:35:57.074Z,1.00
2023-04-03T03:38:24.230Z,1.00
2023-04-03T03:40:51.926Z,1.00
2023-04-03T03:43:19.231Z,1.00
2023-04-03T03:45:47.235Z,1.00
2023-04-03T03:48:14.046Z,1.00
2023-04-03T03:50:40.827Z,1.00
2023-04-03T03:53:07.631Z,1.00
2023-04-03T03:55:34.637Z,1.00
2023-04-03T03:58:02.196Z,1.00
2023-04-03T04:00:29.086Z,1.00
2023-04-03T04:02:58.747Z,1.00
2023-04-03T04:05:26.424Z,1.00
2023-04-03T04:07:53.502Z,1.00
2023-04-03T04:10:20.292Z,1.00
2023-04-03T04:12:47.034Z,1.00
2023-04-03T04:15:13.877Z,1.00
2023-04-03T04:17:40.716Z,1.00
2023-04-03T04:20:07.953Z,1.00
2023-04-03T04:22:34.755Z,1.00
2023-04-03T04:25:01.486Z,1.00
2023-04-03T04:27:28.258Z,53.40
2023-04-03T04:29:55.000Z,8.30
2023-04-03T04:32:21.838Z,49.00
2023-04-03T04:34:48.647Z,9.10
2023-04-03T04:37:15.475Z,99.90
2023-04-03T04:39:42.434Z,24.10
2023-04-03T04:42:15.021Z,1.00
2023-04-03T04:44:43.458Z,16.90
2023-04-03T04:47:10.457Z,99.90
2023-04-03T04:49:37.300Z,99.90
2023-04-03T04:52:04.181Z,99.90
2023-04-03T04:54:31.010Z,99.90
2023-04-03T04:56:57.762Z,99.90
2023-04-03T04:59:24.625Z,99.90
2023-04-03T05:01:51.615Z,99.90
2023-04-03T05:04:18.641Z,99.90
2023-04-03T05:06:45.653Z,99.90
2023-04-03T05:09:12.464Z,99.90
2023-04-03T05:11:39.265Z,99.90
2023-04-03T05:14:08.865Z,99.90
2023-04-03T05:16:35.919Z,99.90
2023-04-03T05:19:02.771Z,99.90
2023-04-03T05:21:33.232Z,99.90
2023-04-03T05:24:03.514Z,99.90
2023-04-03T05:26:31.737Z,99.90
2023-04-03T05:28:58.832Z,99.90
2023-04-03T05:31:25.759Z,99.90
2023-04-03T05:33:52.578Z,1.00
2023-04-03T05:36:19.779Z,1.00
2023-04-03T05:38:46.800Z,99.90
2023-04-03T05:41:14.745Z,99.90
2023-04-03T05:43:41.920Z,99.90
2023-04-03T05:46:13.371Z,1.00
2023-04-03T05:48:40.865Z,1.00
2023-04-03T05:51:08.698Z,1.00
2023-04-03T05:53:40.057Z,99.90
2023-04-03T05:56:07.020Z,1.00
2023-04-03T05:58:33.869Z,1.00
2023-04-03T06:01:00.742Z,1.00
2023-04-03T06:03:27.805Z,1.00
2023-04-03T06:05:54.686Z,1.00
2023-04-03T06:08:21.703Z,1.00
2023-04-03T06:10:48.918Z,1.00
2023-04-03T06:13:16.089Z,1.00
2023-04-03T06:15:43.156Z,61.10
2023-04-03T06:18:10.054Z,43.60
2023-04-03T06:20:37.200Z,99.90
2023-04-03T06:23:04.176Z,99.90
2023-04-03T06:25:30.986Z,99.90
2023-04-03T06:27:57.730Z,1.00
2023-04-03T06:30:24.546Z,1.00
2023-04-03T06:32:51.404Z,1.00
2023-04-03T06:35:18.328Z,99.90
2023-04-03T06:37:45.073Z,99.90
2023-04-03T06:40:24.781Z,99.90
2023-04-03T06:42:51.592Z,99.90
2023-04-03T06:45:18.660Z,99.90
2023-04-03T06:47:46.437Z,99.90
2023-04-03T06:50:15.081Z,99.90
2023-04-03T06:52:42.776Z,99.90
2023-04-03T06:55:10.352Z,28.30
2023-04-03T06:57:37.632Z,2.40
2023-04-03T07:00:06.381Z,1.00
2023-04-03T07:02:33.286Z,28.40
2023-04-03T07:05:00.349Z,28.30
2023-04-03T07:07:27.149Z,1.00
2023-04-03T07:09:54.697Z,1.00
2023-04-03T07:12:21.752Z,15.30
2023-04-03T07:14:48.584Z,99.90
2023-04-03T07:17:15.503Z,1.00
2023-04-03T07:19:42.347Z,1.00
2023-04-03T07:22:09.310Z,1.00
2023-04-03T07:24:36.726Z,1.00
2023-04-03T07:27:04.043Z,1.00
2023-04-03T07:29:31.113Z,1.00
2023-04-03T07:31:58.273Z,99.90
2023-04-03T07:34:25.339Z,99.90
2023-04-03T07:36:52.106Z,99.90
2023-04-03T07:39:18.992Z,99.90
2023-04-03T07:41:46.709Z,99.90
2023-04-03T07:44:13.686Z,99.90
2023-04-03T07:46:41.650Z,99.90
2023-04-03T07:49:08.439Z,99.90
2023-04-03T07:51:35.618Z,99.90
2023-04-03T07:54:02.519Z,99.90
2023-04-03T07:56:29.290Z,92.90
2023-04-03T07:58:56.219Z,9.20
2023-04-03T08:01:23.239Z,1.00
2023-04-03T08:03:50.138Z,1.00
2023-04-03T08:06:20.003Z,1.00
2023-04-03T08:08:50.758Z,1.00
2023-04-03T08:11:17.491Z,1.00
2023-04-03T08:13:44.340Z,1.00
2023-04-03T08:16:13.550Z,1.00
2023-04-03T08:18:41.224Z,1.00
2023-04-03T08:21:09.869Z,1.00
2023-04-03T08:23:36.707Z,1.00
2023-04-03T08:26:11.406Z,1.00
2023-04-03T08:28:38.264Z,1.00
2023-04-03T08:31:07.198Z,99.90
2023-04-03T08:33:35.557Z,99.90
2023-04-03T08:36:03.969Z,99.90
2023-04-03T08:38:30.930Z,99.90
2023-04-03T08:41:37.685Z,99.90
2023-04-03T08:44:19.027Z,99.90
2023-04-03T08:46:57.464Z,72.60
2023-04-03T08:49:29.488Z,13.40
2023-04-03T08:51:57.249Z,1.00
2023-04-03T08:54:32.969Z,1.00
2023-04-03T08:57:03.971Z,1.00
2023-04-03T08:59:34.207Z,1.00
2023-04-03T09:02:05.622Z,1.00
2023-04-03T09:04:36.027Z,1.00
2023-04-03T09:07:11.596Z,1.00
2023-04-03T09:09:50.948Z,1.00
2023-04-03T09:12:31.245Z,1.00
2023-04-03T09:15:35.533Z,1.00
2023-04-03T09:18:13.654Z,1.00
2023-04-03T09:20:52.715Z,1.00
2023-04-03T09:23:28.655Z,1.00
2023-04-03T09:26:01.857Z,1.00
2023-04-03T09:28:35.774Z,1.00
2023-04-03T09:31:31.198Z,1.00
2023-04-03T09:34:03.409Z,1.00
2023-04-03T09:36:40.966Z,1.00
2023-04-03T09:39:16.951Z,1.00
2023-04-03T09:42:17.183Z,1.00
2023-04-03T09:44:54.932Z,1.00
2023-04-03T09:47:29.295Z,99.90
2023-04-03T09:50:16.073Z,1.00
2023-04-03T09:52:44.013Z,1.00
2023-04-03T09:55:18.990Z,1.00
2023-04-03T09:57:47.012Z,1.00
2023-04-03T10:00:39.568Z,1.00
2023-04-03T10:03:11.528Z,1.00
2023-04-03T10:05:40.741Z,99.90
2023-04-03T10:08:12.176Z,99.90
2023-04-03T10:10:39.954Z,99.90
2023-04-03T10:13:21.403Z,99.90
2023-04-03T10:15:57.673Z,99.90
2023-04-03T10:18:30.871Z,99.90
2023-04-03T10:21:06.202Z,99.90
2023-04-03T10:23:43.524Z,99.90
2023-04-03T10:26:16.346Z,99.90
2023-04-03T10:29:06.364Z,99.90
2023-04-03T10:31:33.393Z,99.90
2023-04-03T10:34:15.299Z,99.90
2023-04-03T10:36:45.037Z,99.90
2023-04-03T10:39:20.885Z,99.90
2023-04-03T10:42:13.316Z,99.90
2023-04-03T10:45:18.594Z,99.90
2023-04-03T10:48:12.325Z,99.90
2023-04-03T10:50:45.920Z,99.90
2023-04-03T10:53:33.917Z,99.90
2023-04-03T10:56:19.484Z,99.90
2023-04-03T10:58:49.948Z,99.90
2023-04-03T11:01:22.774Z,99.90
2023-04-03T11:03:53.814Z,99.90
2023-04-03T11:06:24.641Z,99.90
2023-04-03T11:09:11.934Z,99.90
2023-04-03T11:11:41.349Z,99.90
2023-04-03T11:14:36.630Z,99.90
2023-04-03T11:17:45.293Z,99.90
2023-04-03T11:20:22.042Z,99.90
2023-04-03T11:23:22.798Z,99.90
2023-04-03T11:25:51.456Z,99.90
2023-04-03T11:28:18.191Z,99.90
2023-04-03T11:30:53.529Z,99.90
2023-04-03T11:33:29.677Z,99.90
2023-04-03T11:36:01.196Z,99.90
2023-04-03T11:38:37.417Z,99.90
2023-04-03T11:41:06.204Z,99.90
2023-04-03T11:43:34.411Z,99.90
2023-04-03T11:46:04.104Z,99.90
2023-04-03T11:48:34.258Z,99.90
2023-04-03T11:51:02.529Z,99.90
2023-04-03T11:53:35.576Z,99.90
2023-04-03T11:56:24.344Z,99.90
2023-04-03T11:59:06.272Z,93.50
2023-04-03T12:01:49.011Z,99.90
2023-04-03T12:04:18.032Z,76.10
2023-04-03T12:06:48.259Z,72.50
2023-04-03T12:09:25.964Z,56.50
2023-04-03T12:11:53.159Z,74.50
2023-04-03T12:14:23.764Z,70.80
2023-04-03T12:16:52.265Z,59.70
2023-04-03T12:19:24.301Z,77.80
2023-04-03T12:22:00.377Z,70.10
2023-04-03T12:24:31.880Z,64.30
2023-04-03T12:26:59.245Z,41.20
2023-04-03T12:29:40.768Z,26.60
2023-04-03T12:32:14.233Z,24.80
2023-04-03T12:34:56.820Z,20.20
2023-04-03T12:37:48.151Z,18.30
2023-04-03T12:40:39.327Z,22.00
2023-04-03T12:43:07.220Z,20.40
2023-04-03T12:45:50.879Z,14.30
2023-04-03T12:48:20.440Z,16.90
2023-04-03T12:50:48.548Z,1.00
2023-04-03T12:53:22.278Z,1.00
2023-04-03T12:55:50.510Z,1.00
2023-04-03T12:58:24.883Z,1.00
2023-04-03T13:01:10.445Z,1.00
2023-04-03T13:03:40.127Z,1.00
2023-04-03T13:06:07.953Z,1.00
2023-04-03T13:08:34.723Z,1.00
2023-04-03T13:11:11.475Z,1.00
2023-04-03T13:13:39.949Z,1.00
2023-04-03T13:16:11.830Z,1.00
2023-04-03T13:18:39.120Z,1.00
2023-04-03T13:21:08.672Z,1.00
2023-04-03T13:23:37.764Z,1.00
2023-04-03T13:26:06.031Z,1.00
2023-04-03T13:28:33.749Z,1.00
2023-04-03T13:31:21.029Z,1.00
2023-04-03T13:34:06.828Z,1.00
2023-04-03T13:36:39.370Z,1.00
2023-04-03T13:39:08.531Z,1.00
2023-04-03T13:41:38.545Z,1.00
2023-04-03T13:44:23.564Z,1.00
2023-04-03T13:47:18.215Z,1.00
2023-04-03T13:50:00.446Z,1.00
2023-04-03T13:52:30.494Z,1.00
2023-04-03T13:55:07.913Z,1.00
2023-04-03T13:57:37.040Z,1.00
2023-04-03T14:00:28.337Z,1.00
2023-04-03T14:02:57.488Z,1.00
2023-04-03T14:05:26.416Z,1.00
2023-04-03T14:07:56.353Z,1.00
2023-04-03T14:10:23.581Z,1.00
2023-04-03T14:12:52.077Z,1.00
2023-04-03T14:15:26.252Z,1.00
2023-04-03T14:17:53.217Z,1.00
2023-04-03T14:20:23.535Z,1.00
2023-04-03T14:22:50.387Z,1.00
2023-04-03T14:25:18.537Z,1.00
2023-04-03T14:27:48.048Z,1.00
2023-04-03T14:30:16.625Z,1.00
2023-04-03T14:32:43.942Z,1.00
2023-04-03T14:35:10.744Z,1.00
2023-04-03T14:37:37.598Z,1.00
2023-04-03T14:40:06.318Z,1.00
2023-04-03T14:42:38.595Z,1.00
2023-04-03T14:45:09.229Z,1.00
2023-04-03T14:47:38.505Z,1.00
2023-04-03T14:50:08.134Z,1.00
2023-04-03T14:52:36.923Z,1.00
2023-04-03T14:55:06.890Z,1.00
2023-04-03T14:57:34.646Z,1.00
2023-04-03T15:00:02.745Z,1.00
2023-04-03T15:02:31.021Z,1.00
2023-04-03T15:04:59.986Z,1.00
2023-04-03T15:07:29.172Z,1.00
2023-04-03T15:09:59.281Z,1.00
2023-04-03T15:12:26.700Z,1.00
2023-04-03T15:15:01.109Z,1.00
2023-04-03T15:17:29.803Z,1.00
2023-04-03T15:19:56.946Z,1.00
2023-04-03T15:22:23.696Z,1.00
2023-04-03T15:24:50.628Z,1.00
2023-04-03T15:27:17.494Z,1.00
2023-04-03T15:29:44.916Z,1.00
2023-04-03T15:32:12.502Z,1.00
2023-04-03T15:34:40.254Z,1.00
2023-04-03T15:37:07.067Z,1.00
2023-04-03T15:39:33.937Z,1.00
2023-04-03T15:42:06.861Z,1.00
2023-04-03T15:44:36.564Z,1.00
2023-04-03T15:47:03.848Z,1.00
2023-04-03T15:49:31.218Z,1.00
2023-04-03T15:51:58.000Z,1.00
2023-04-03T15:54:25.712Z,1.00
2023-04-03T15:56:53.457Z,1.00
2023-04-03T15:59:20.574Z,1.00
2023-04-03T16:01:48.019Z,1.00
2023-04-03T16:04:15.621Z,1.00
2023-04-03T16:06:43.013Z,1.00
2023-04-03T16:09:10.344Z,1.00
2023-04-03T16:11:40.199Z,1.00
2023-04-03T16:14:10.420Z,1.00
2023-04-03T16:16:37.599Z,1.00
2023-04-03T16:19:04.805Z,1.00
2023-04-03T16:21:32.706Z,1.00
2023-04-03T16:23:59.952Z,1.00
2023-04-03T16:26:27.130Z,1.00
2023-04-03T16:28:54.461Z,1.00
2023-04-03T16:31:21.964Z,1.00
2023-04-03T16:33:48.819Z,1.00
2023-04-03T16:36:15.665Z,1.00
2023-04-03T16:38:42.457Z,1.00
2023-04-03T16:41:09.262Z,1.00
2023-04-03T16:43:36.803Z,1.00
2023-04-03T16:46:03.830Z,1.00
2023-04-03T16:48:31.291Z,1.00
2023-04-03T16:50:58.177Z,1.00
2023-04-03T16:53:25.752Z,1.00
2023-04-03T16:55:52.727Z,1.00
2023-04-03T16:58:21.689Z,1.00
2023-04-03T17:00:49.341Z,1.00
2023-04-03T17:03:16.318Z,1.00
2023-04-03T17:05:44.639Z,1.00
2023-04-03T17:08:11.621Z,1.00
2023-04-03T17:10:38.500Z,1.00
2023-04-03T17:13:05.283Z,1.00
2023-04-03T17:15:32.214Z,1.00
2023-04-03T17:17:59.094Z,1.00
2023-04-03T17:20:26.169Z,1.00
2023-04-03T17:22:52.921Z,1.00
2023-04-03T17:25:19.716Z,1.00
2023-04-03T17:27:46.521Z,1.00
2023-04-03T17:30:13.486Z,1.00
2023-04-03T17:32:40.901Z,1.00
2023-04-03T17:35:10.284Z,1.00
2023-04-03T17:37:38.694Z,1.00
2023-04-03T17:40:06.496Z,1.00
2023-04-03T17:42:33.552Z,1.00
2023-04-03T17:45:01.336Z,1.00
2023-04-03T17:47:28.194Z,1.00
2023-04-03T17:49:55.134Z,1.00
2023-04-03T17:52:25.480Z,1.00
2023-04-03T17:54:52.297Z,1.00
2023-04-03T17:57:19.145Z,1.00
2023-04-03T17:59:46.461Z,1.00
2023-04-03T18:02:13.255Z,1.00
2023-04-03T18:04:40.110Z,1.00
2023-04-03T18:07:09.658Z,1.00
2023-04-03T18:09:37.424Z,1.00
2023-04-03T18:12:06.382Z,1.00
2023-04-03T18:14:34.104Z,1.00
2023-04-03T18:17:01.005Z,1.00
2023-04-03T18:19:29.768Z,1.00
2023-04-03T18:22:00.453Z,1.00
2023-04-03T18:24:27.695Z,1.00
2023-04-03T18:26:58.980Z,1.00
2023-04-03T18:29:26.165Z,1.00
2023-04-03T18:31:54.377Z,1.00
2023-04-03T18:34:21.278Z,1.00
2023-04-03T18:36:49.104Z,1.00
2023-04-03T18:39:16.011Z,1.00
2023-04-03T18:41:43.070Z,1.00
2023-04-03T18:44:13.444Z,1.00
2023-04-03T18:46:40.396Z,1.00
2023-04-03T18:49:08.037Z,1.00
2023-04-03T18:51:34.868Z,1.00
2023-04-03T18:54:02.723Z,1.00
2023-04-03T18:56:30.877Z,1.00
2023-04-03T18:58:57.893Z,1.00
2023-04-03T19:01:24.735Z,1.00
2023-04-03T19:03:51.537Z,1.00
2023-04-03T19:06:18.418Z,1.00
2023-04-03T19:08:45.646Z,1.00
2023-04-03T19:11:12.626Z,1.00
2023-04-03T19:13:46.885Z,1.00
2023-04-03T19:16:25.017Z,1.00
2023-04-03T19:18:51.999Z,1.00
2023-04-03T19:21:18.917Z,1.00
2023-04-03T19:23:45.781Z,1.00
2023-04-03T19:26:13.651Z,1.00
2023-04-03T19:28:41.701Z,1.00
2023-04-03T19:31:26.496Z,1.00
2023-04-03T19:33:53.327Z,1.00
2023-04-03T19:36:20.469Z,1.00
2023-04-03T19:38:47.443Z,1.00
2023-04-03T19:41:22.887Z,1.00
2023-04-03T19:43:52.049Z,1.00
2023-04-03T19:46:20.436Z,1.00
2023-04-03T19:48:50.352Z,1.00
2023-04-03T19:51:17.402Z,1.00
2023-04-03T19:53:44.221Z,1.00
2023-04-03T19:56:11.085Z,1.00
2023-04-03T19:58:39.180Z,1.00
2023-04-03T20:01:06.127Z,1.00
2023-04-03T20:03:33.727Z,1.00
2023-04-03T20:06:02.127Z,1.00
2023-04-03T20:08:30.089Z,1.00
2023-04-03T20:10:57.502Z,1.00
2023-04-03T20:13:24.307Z,1.00
2023-04-03T20:15:51.143Z,1.00
2023-04-03T20:18:19.804Z,1.00
2023-04-03T20:20:55.534Z,1.00
2023-04-03T20:23:23.040Z,1.00
2023-04-03T20:26:05.869Z,1.00
2023-04-03T20:28:38.077Z,1.00
2023-04-03T20:31:05.679Z,1.00
2023-04-03T20:33:32.489Z,1.00
2023-04-03T20:35:59.643Z,1.00
2023-04-03T20:38:26.512Z,1.00
2023-04-03T20:40:53.363Z,1.00
2023-04-03T20:43:21.851Z,1.00
2023-04-03T20:45:50.297Z,1.00
2023-04-03T20:48:18.108Z,1.00
2023-04-03T20:50:46.508Z,1.00
2023-04-03T20:53:15.002Z,1.00
2023-04-03T20:55:42.314Z,1.00
2023-04-03T20:58:09.382Z,1.00
2023-04-03T21:00:37.980Z,1.00
2023-04-03T21:03:05.703Z,1.00
2023-04-03T21:05:36.937Z,1.00
2023-04-03T21:08:41.060Z,1.00
2023-04-03T21:11:45.379Z,1.00
2023-04-03T21:14:49.877Z,1.00
2023-04-03T21:17:16.613Z,1.00
2023-04-03T21:19:46.547Z,1.00
2023-04-03T21:22:14.710Z,1.00
2023-04-03T21:24:42.060Z,1.00
2023-04-03T21:27:08.888Z,1.00
2023-04-03T21:29:35.834Z,1.00
2023-04-03T21:32:02.659Z,1.00
2023-04-03T21:34:30.948Z,1.00
2023-04-03T21:37:05.527Z,1.00
2023-04-03T21:39:33.155Z,1.00
2023-04-03T21:42:00.262Z,1.00
2023-04-03T21:44:28.447Z,1.00
2023-04-03T21:46:55.781Z,1.00
2023-04-03T21:49:23.810Z,1.00
2023-04-03T21:51:51.858Z,1.00
2023-04-03T21:54:19.395Z,1.00
2023-04-03T21:56:48.064Z,1.00
2023-04-03T21:59:15.822Z,1.00
2023-04-03T22:01:43.339Z,1.00
2023-04-03T22:04:10.724Z,1.00
2023-04-03T22:06:38.134Z,1.00
2023-04-03T22:09:05.225Z,1.00
2023-04-03T22:11:32.298Z,1.00
2023-04-03T22:13:59.839Z,1.00
2023-04-03T22:16:27.567Z,1.00
2023-04-03T22:18:54.969Z,1.00
2023-04-03T22:21:22.280Z,1.00
2023-04-03T22:23:49.309Z,1.00
2023-04-03T22:26:16.483Z,1.00
2023-04-03T22:28:45.236Z,1.00
2023-04-03T22:31:16.202Z,1.00
2023-04-03T22:33:44.533Z,1.00
2023-04-03T22:36:12.532Z,1.00
2023-04-03T22:38:40.762Z,1.00
2023-04-03T22:41:08.210Z,1.00
2023-04-03T22:43:36.497Z,1.00
2023-04-03T22:46:10.919Z,1.00
2023-04-03T22:48:39.216Z,1.00
2023-04-03T22:51:07.594Z,1.00
2023-04-03T22:53:35.604Z,1.00
2023-04-03T22:56:04.779Z,1.00
2023-04-03T22:58:31.760Z,1.00
2023-04-03T23:01:07.556Z,1.00
2023-04-03T23:03:36.101Z,1.00
2023-04-03T23:06:04.531Z,1.00
2023-04-03T23:08:32.708Z,1.00
2023-04-03T23:10:59.897Z,1.00
2023-04-03T23:13:27.454Z,1.00
2023-04-03T23:15:58.675Z,1.00
2023-04-03T23:18:29.824Z,1.00
2023-04-03T23:20:58.522Z,1.00
2023-04-03T23:23:25.530Z,1.00
2023-04-03T23:25:57.116Z,1.00
2023-04-03T23:28:24.713Z,1.00
2023-04-03T23:30:59.481Z,1.00
2023-04-03T23:33:26.331Z,1.00
2023-04-03T23:35:53.142Z,1.00
2023-04-03T23:38:19.924Z,1.00
2023-04-03T23:40:47.171Z,1.00
2023-04-03T23:43:14.195Z,1.00
2023-04-03T23:45:41.429Z,1.00
2023-04-03T23:48:08.955Z,1.00
2023-04-03T23:50:37.455Z,1.00
2023-04-03T23:53:04.410Z,1.00
2023-04-03T23:55:31.698Z,1.00
2023-04-03T23:57:58.543Z,1.00
